sensor_id;sensor_type;location;lat;lon;timestamp;P1;durP1;ratioP1;P2;durP2;ratioP2
18983;SDS011;9626;52.552;13.436;2023-02-15T00:01:32;33.10;;;22.67;;
18983;SDS011;9626;52.552;13.436;2023-02-15T00:03:59;35.57;;;23.83;;
18983;SDS011;9626;52.552;13.436;2023-02-15T00:06:25;35.63;;;24.03;;
18983;SDS011;9626;52.552;13.436;2023-02-15T00:08:51;38.83;;;24.10;;
18983;SDS011;9626;52.552;13.436;2023-02-15T00:11:19;36.10;;;23.80;;
18983;SDS011;9626;52.552;13.436;2023-02-15T00:16:39;35.97;;;22.53;;
18983;SDS011;9626;52.552;13.436;2023-02-15T00:19:06;34.00;;;22.67;;
18983;SDS011;9626;52.552;13.436;2023-02-15T00:21:33;36.10;;;23.20;;
18983;SDS011;9626;52.552;13.436;2023-02-15T00:24:00;35.27;;;22.53;;
18983;SDS011;9626;52.552;13.436;2023-02-15T00:26:28;34.50;;;23.43;;
18983;SDS011;9626;52.552;13.436;2023-02-15T00:28:55;37.33;;;24.63;;
18983;SDS011;9626;52.552;13.436;2023-02-15T00:31:24;36.63;;;23.50;;
18983;SDS011;9626;52.552;13.436;2023-02-15T00:33:50;36.07;;;23.33;;
18983;SDS011;9626;52.552;13.436;2023-02-15T00:36:16;33.87;;;22.87;;
18983;SDS011;9626;52.552;13.436;2023-02-15T00:38:42;36.33;;;23.77;;
18983;SDS011;9626;52.552;13.436;2023-02-15T00:41:09;34.73;;;23.17;;
18983;SDS011;9626;52.552;13.436;2023-02-15T00:43:35;34.47;;;23.30;;
18983;SDS011;9626;52.552;13.436;2023-02-15T00:46:03;38.30;;;24.70;;
18983;SDS011;9626;52.552;13.436;2023-02-15T00:48:30;32.77;;;22.03;;
18983;SDS011;9626;52.552;13.436;2023-02-15T00:50:57;38.43;;;24.40;;
18983;SDS011;9626;52.552;13.436;2023-02-15T00:53:25;37.73;;;22.77;;
18983;SDS011;9626;52.552;13.436;2023-02-15T00:55:52;34.73;;;23.13;;
18983;SDS011;9626;52.552;13.436;2023-02-15T00:58:18;37.17;;;23.57;;
18983;SDS011;9626;52.552;13.436;2023-02-15T01:00:45;33.53;;;23.70;;
18983;SDS011;9626;52.552;13.436;2023-02-15T01:03:13;34.63;;;23.07;;
18983;SDS011;9626;52.552;13.436;2023-02-15T01:05:41;35.43;;;24.30;;
18983;SDS011;9626;52.552;13.436;2023-02-15T01:08:07;34.80;;;23.70;;
18983;SDS011;9626;52.552;13.436;2023-02-15T01:10:34;35.77;;;23.83;;
18983;SDS011;9626;52.552;13.436;2023-02-15T01:13:02;34.47;;;23.10;;
18983;SDS011;9626;52.552;13.436;2023-02-15T01:15:28;37.40;;;24.03;;
18983;SDS011;9626;52.552;13.436;2023-02-15T01:17:54;39.33;;;23.47;;
18983;SDS011;9626;52.552;13.436;2023-02-15T01:20:22;38.40;;;24.43;;
18983;SDS011;9626;52.552;13.436;2023-02-15T01:22:50;37.53;;;23.90;;
18983;SDS011;9626;52.552;13.436;2023-02-15T01:25:17;35.50;;;24.23;;
18983;SDS011;9626;52.552;13.436;2023-02-15T01:27:44;39.67;;;25.10;;
18983;SDS011;9626;52.552;13.436;2023-02-15T01:30:10;35.50;;;23.97;;
18983;SDS011;9626;52.552;13.436;2023-02-15T01:32:36;37.00;;;24.80;;
18983;SDS011;9626;52.552;13.436;2023-02-15T01:35:03;37.50;;;25.07;;
18983;SDS011;9626;52.552;13.436;2023-02-15T01:37:32;37.40;;;23.90;;
18983;SDS011;9626;52.552;13.436;2023-02-15T01:39:59;35.60;;;23.90;;
18983;SDS011;9626;52.552;13.436;2023-02-15T01:42:26;36.10;;;24.73;;
18983;SDS011;9626;52.552;13.436;2023-02-15T01:47:32;38.73;;;24.53;;
18983;SDS011;9626;52.552;13.436;2023-02-15T01:50:09;37.57;;;23.30;;
18983;SDS011;9626;52.552;13.436;2023-02-15T01:52:40;36.13;;;22.90;;
18983;SDS011;9626;52.552;13.436;2023-02-15T01:55:11;35.20;;;23.50;;
18983;SDS011;9626;52.552;13.436;2023-02-15T01:57:38;36.53;;;23.50;;
18983;SDS011;9626;52.552;13.436;2023-02-15T02:00:04;35.77;;;24.63;;
18983;SDS011;9626;52.552;13.436;2023-02-15T02:02:32;36.13;;;24.30;;
18983;SDS011;9626;52.552;13.436;2023-02-15T02:04:59;35.43;;;23.43;;
18983;SDS011;9626;52.552;13.436;2023-02-15T02:07:33;39.63;;;24.10;;
18983;SDS011;9626;52.552;13.436;2023-02-15T02:10:02;38.57;;;24.37;;
18983;SDS011;9626;52.552;13.436;2023-02-15T02:12:30;37.03;;;25.37;;
18983;SDS011;9626;52.552;13.436;2023-02-15T02:14:57;37.17;;;24.40;;
18983;SDS011;9626;52.552;13.436;2023-02-15T02:17:29;33.93;;;23.33;;
18983;SDS011;9626;52.552;13.436;2023-02-15T02:23:07;38.67;;;24.13;;
18983;SDS011;9626;52.552;13.436;2023-02-15T02:39:24;43.63;;;27.23;;
18983;SDS011;9626;52.552;13.436;2023-02-15T02:44:51;44.53;;;27.80;;
18983;SDS011;9626;52.552;13.436;2023-02-15T02:47:30;44.57;;;28.67;;
18983;SDS011;9626;52.552;13.436;2023-02-15T02:50:04;47.93;;;28.80;;
18983;SDS011;9626;52.552;13.436;2023-02-15T02:52:41;47.57;;;27.27;;
18983;SDS011;9626;52.552;13.436;2023-02-15T02:55:13;48.97;;;28.30;;
18983;SDS011;9626;52.552;13.436;2023-02-15T02:57:49;44.57;;;27.67;;
18983;SDS011;9626;52.552;13.436;2023-02-15T03:00:20;48.60;;;29.40;;
18983;SDS011;9626;52.552;13.436;2023-02-15T03:02:49;49.40;;;31.07;;
18983;SDS011;9626;52.552;13.436;2023-02-15T03:05:24;48.63;;;29.80;;
18983;SDS011;9626;52.552;13.436;2023-02-15T03:07:52;52.20;;;31.67;;
18983;SDS011;9626;52.552;13.436;2023-02-15T03:10:20;49.77;;;29.70;;
18983;SDS011;9626;52.552;13.436;2023-02-15T03:12:49;47.83;;;30.17;;
18983;SDS011;9626;52.552;13.436;2023-02-15T03:15:25;50.10;;;30.20;;
18983;SDS011;9626;52.552;13.436;2023-02-15T03:18:16;46.47;;;30.07;;
18983;SDS011;9626;52.552;13.436;2023-02-15T03:20:45;53.90;;;31.73;;
18983;SDS011;9626;52.552;13.436;2023-02-15T03:23:14;54.40;;;33.13;;
18983;SDS011;9626;52.552;13.436;2023-02-15T03:25:44;52.40;;;32.53;;
18983;SDS011;9626;52.552;13.436;2023-02-15T03:28:18;55.00;;;33.03;;
18983;SDS011;9626;52.552;13.436;2023-02-15T03:30:47;56.70;;;32.53;;
18983;SDS011;9626;52.552;13.436;2023-02-15T03:33:18;56.20;;;33.03;;
18983;SDS011;9626;52.552;13.436;2023-02-15T03:35:50;50.80;;;30.70;;
18983;SDS011;9626;52.552;13.436;2023-02-15T03:38:25;54.40;;;31.80;;
18983;SDS011;9626;52.552;13.436;2023-02-15T03:40:58;54.03;;;32.63;;
18983;SDS011;9626;52.552;13.436;2023-02-15T03:46:59;52.37;;;31.80;;
18983;SDS011;9626;52.552;13.436;2023-02-15T03:51:55;57.77;;;32.93;;
18983;SDS011;9626;52.552;13.436;2023-02-15T03:54:28;60.73;;;34.77;;
18983;SDS011;9626;52.552;13.436;2023-02-15T03:57:16;61.70;;;33.17;;
18983;SDS011;9626;52.552;13.436;2023-02-15T04:03:00;60.83;;;35.13;;
18983;SDS011;9626;52.552;13.436;2023-02-15T04:05:36;63.00;;;36.87;;
18983;SDS011;9626;52.552;13.436;2023-02-15T04:08:03;66.27;;;38.30;;
18983;SDS011;9626;52.552;13.436;2023-02-15T04:10:29;68.07;;;37.70;;
18983;SDS011;9626;52.552;13.436;2023-02-15T04:13:14;66.33;;;36.70;;
18983;SDS011;9626;52.552;13.436;2023-02-15T04:15:40;71.03;;;37.40;;
18983;SDS011;9626;52.552;13.436;2023-02-15T04:18:24;65.50;;;37.33;;
18983;SDS011;9626;52.552;13.436;2023-02-15T04:21:09;66.27;;;36.67;;
18983;SDS011;9626;52.552;13.436;2023-02-15T04:23:54;62.50;;;34.90;;
18983;SDS011;9626;52.552;13.436;2023-02-15T04:26:38;65.30;;;35.53;;
18983;SDS011;9626;52.552;13.436;2023-02-15T04:29:04;67.50;;;36.13;;
18983;SDS011;9626;52.552;13.436;2023-02-15T04:31:30;66.07;;;35.60;;
18983;SDS011;9626;52.552;13.436;2023-02-15T04:33:56;62.23;;;35.87;;
18983;SDS011;9626;52.552;13.436;2023-02-15T04:36:22;60.97;;;35.53;;
18983;SDS011;9626;52.552;13.436;2023-02-15T04:38:48;60.43;;;33.33;;
18983;SDS011;9626;52.552;13.436;2023-02-15T04:41:14;62.77;;;34.37;;
18983;SDS011;9626;52.552;13.436;2023-02-15T04:43:40;63.60;;;34.07;;
18983;SDS011;9626;52.552;13.436;2023-02-15T04:46:06;64.80;;;35.63;;
18983;SDS011;9626;52.552;13.436;2023-02-15T04:48:32;60.27;;;33.20;;
18983;SDS011;9626;52.552;13.436;2023-02-15T04:50:58;68.10;;;34.13;;
18983;SDS011;9626;52.552;13.436;2023-02-15T04:53:24;64.43;;;33.63;;
18983;SDS011;9626;52.552;13.436;2023-02-15T04:55:50;62.17;;;33.87;;
18983;SDS011;9626;52.552;13.436;2023-02-15T04:58:16;56.93;;;32.70;;
18983;SDS011;9626;52.552;13.436;2023-02-15T05:00:42;62.23;;;32.40;;
18983;SDS011;9626;52.552;13.436;2023-02-15T05:03:08;62.73;;;32.57;;
18983;SDS011;9626;52.552;13.436;2023-02-15T05:05:35;59.60;;;32.47;;
18983;SDS011;9626;52.552;13.436;2023-02-15T05:08:01;59.10;;;33.53;;
18983;SDS011;9626;52.552;13.436;2023-02-15T05:10:27;58.57;;;32.47;;
18983;SDS011;9626;52.552;13.436;2023-02-15T05:12:53;57.70;;;31.10;;
18983;SDS011;9626;52.552;13.436;2023-02-15T05:15:19;59.53;;;33.30;;
18983;SDS011;9626;52.552;13.436;2023-02-15T05:17:45;61.93;;;33.67;;
18983;SDS011;9626;52.552;13.436;2023-02-15T05:20:11;63.47;;;36.10;;
18983;SDS011;9626;52.552;13.436;2023-02-15T05:22:37;59.77;;;32.50;;
18983;SDS011;9626;52.552;13.436;2023-02-15T05:25:03;63.27;;;33.57;;
18983;SDS011;9626;52.552;13.436;2023-02-15T05:27:48;57.37;;;31.93;;
18983;SDS011;9626;52.552;13.436;2023-02-15T05:30:32;58.07;;;30.13;;
18983;SDS011;9626;52.552;13.436;2023-02-15T05:32:58;59.43;;;30.87;;
18983;SDS011;9626;52.552;13.436;2023-02-15T05:35:24;58.83;;;31.50;;
18983;SDS011;9626;52.552;13.436;2023-02-15T05:37:50;59.80;;;33.30;;
18983;SDS011;9626;52.552;13.436;2023-02-15T05:40:16;62.47;;;32.23;;
18983;SDS011;9626;52.552;13.436;2023-02-15T05:42:43;60.13;;;32.10;;
18983;SDS011;9626;52.552;13.436;2023-02-15T05:45:09;58.87;;;31.83;;
18983;SDS011;9626;52.552;13.436;2023-02-15T05:47:35;59.07;;;34.20;;
18983;SDS011;9626;52.552;13.436;2023-02-15T05:50:01;61.00;;;32.53;;
18983;SDS011;9626;52.552;13.436;2023-02-15T05:52:27;61.13;;;31.70;;
18983;SDS011;9626;52.552;13.436;2023-02-15T05:54:53;65.10;;;33.33;;
18983;SDS011;9626;52.552;13.436;2023-02-15T05:57:19;65.13;;;32.97;;
18983;SDS011;9626;52.552;13.436;2023-02-15T05:59:45;62.60;;;33.30;;
18983;SDS011;9626;52.552;13.436;2023-02-15T06:02:11;62.43;;;32.13;;
18983;SDS011;9626;52.552;13.436;2023-02-15T06:04:38;61.43;;;34.37;;
18983;SDS011;9626;52.552;13.436;2023-02-15T06:07:04;71.57;;;35.07;;
18983;SDS011;9626;52.552;13.436;2023-02-15T06:09:30;65.67;;;32.73;;
18983;SDS011;9626;52.552;13.436;2023-02-15T06:11:56;61.93;;;32.90;;
18983;SDS011;9626;52.552;13.436;2023-02-15T06:14:22;69.13;;;35.43;;
18983;SDS011;9626;52.552;13.436;2023-02-15T06:16:49;73.20;;;35.73;;
18983;SDS011;9626;52.552;13.436;2023-02-15T06:19:15;67.30;;;34.67;;
18983;SDS011;9626;52.552;13.436;2023-02-15T06:21:41;78.43;;;34.43;;
18983;SDS011;9626;52.552;13.436;2023-02-15T06:24:10;67.17;;;34.70;;
18983;SDS011;9626;52.552;13.436;2023-02-15T06:26:36;71.03;;;35.27;;
18983;SDS011;9626;52.552;13.436;2023-02-15T06:29:02;73.40;;;36.30;;
18983;SDS011;9626;52.552;13.436;2023-02-15T06:31:28;77.10;;;34.90;;
18983;SDS011;9626;52.552;13.436;2023-02-15T06:33:54;78.93;;;33.87;;
18983;SDS011;9626;52.552;13.436;2023-02-15T06:36:27;92.20;;;33.47;;
18983;SDS011;9626;52.552;13.436;2023-02-15T06:38:54;73.43;;;36.13;;
18983;SDS011;9626;52.552;13.436;2023-02-15T06:41:21;74.93;;;34.67;;
18983;SDS011;9626;52.552;13.436;2023-02-15T06:43:47;75.73;;;34.10;;
18983;SDS011;9626;52.552;13.436;2023-02-15T06:46:13;79.57;;;36.57;;
18983;SDS011;9626;52.552;13.436;2023-02-15T06:48:39;117.23;;;36.00;;
18983;SDS011;9626;52.552;13.436;2023-02-15T06:51:05;92.83;;;36.57;;
18983;SDS011;9626;52.552;13.436;2023-02-15T06:53:31;90.90;;;36.03;;
18983;SDS011;9626;52.552;13.436;2023-02-15T06:56:04;68.60;;;35.40;;
18983;SDS011;9626;52.552;13.436;2023-02-15T06:58:32;113.60;;;34.43;;
18983;SDS011;9626;52.552;13.436;2023-02-15T07:00:59;110.87;;;33.77;;
18983;SDS011;9626;52.552;13.436;2023-02-15T07:03:25;73.03;;;36.23;;
18983;SDS011;9626;52.552;13.436;2023-02-15T07:05:54;77.03;;;33.90;;
18983;SDS011;9626;52.552;13.436;2023-02-15T07:08:22;73.77;;;34.63;;
18983;SDS011;9626;52.552;13.436;2023-02-15T07:10:49;120.50;;;34.33;;
18983;SDS011;9626;52.552;13.436;2023-02-15T07:13:16;90.77;;;34.37;;
18983;SDS011;9626;52.552;13.436;2023-02-15T07:15:43;73.30;;;35.13;;
18983;SDS011;9626;52.552;13.436;2023-02-15T07:18:10;80.90;;;33.60;;
18983;SDS011;9626;52.552;13.436;2023-02-15T07:20:39;71.90;;;33.03;;
18983;SDS011;9626;52.552;13.436;2023-02-15T07:23:07;76.60;;;33.33;;
18983;SDS011;9626;52.552;13.436;2023-02-15T07:25:34;78.67;;;34.03;;
18983;SDS011;9626;52.552;13.436;2023-02-15T07:28:01;71.70;;;32.97;;
18983;SDS011;9626;52.552;13.436;2023-02-15T07:30:29;70.73;;;34.00;;
18983;SDS011;9626;52.552;13.436;2023-02-15T07:32:56;68.23;;;33.93;;
18983;SDS011;9626;52.552;13.436;2023-02-15T07:35:48;103.97;;;34.03;;
18983;SDS011;9626;52.552;13.436;2023-02-15T07:38:15;145.17;;;31.23;;
18983;SDS011;9626;52.552;13.436;2023-02-15T07:40:42;103.57;;;32.23;;
18983;SDS011;9626;52.552;13.436;2023-02-15T07:43:09;89.93;;;31.37;;
18983;SDS011;9626;52.552;13.436;2023-02-15T07:45:36;82.87;;;33.30;;
18983;SDS011;9626;52.552;13.436;2023-02-15T07:48:02;69.33;;;34.07;;
18983;SDS011;9626;52.552;13.436;2023-02-15T07:50:29;85.37;;;33.87;;
18983;SDS011;9626;52.552;13.436;2023-02-15T07:52:55;77.87;;;33.47;;
18983;SDS011;9626;52.552;13.436;2023-02-15T07:55:21;85.57;;;31.77;;
18983;SDS011;9626;52.552;13.436;2023-02-15T07:57:48;103.63;;;33.37;;
18983;SDS011;9626;52.552;13.436;2023-02-15T08:00:16;100.23;;;34.73;;
18983;SDS011;9626;52.552;13.436;2023-02-15T08:02:55;74.93;;;34.90;;
18983;SDS011;9626;52.552;13.436;2023-02-15T08:05:40;93.10;;;34.87;;
18983;SDS011;9626;52.552;13.436;2023-02-15T08:08:08;102.80;;;33.33;;
18983;SDS011;9626;52.552;13.436;2023-02-15T08:13:43;93.33;;;34.10;;
18983;SDS011;9626;52.552;13.436;2023-02-15T08:16:20;96.50;;;37.90;;
18983;SDS011;9626;52.552;13.436;2023-02-15T08:18:47;81.27;;;34.87;;
18983;SDS011;9626;52.552;13.436;2023-02-15T08:21:13;94.43;;;34.93;;
18983;SDS011;9626;52.552;13.436;2023-02-15T08:23:39;75.47;;;36.17;;
18983;SDS011;9626;52.552;13.436;2023-02-15T08:26:05;76.43;;;33.47;;
18983;SDS011;9626;52.552;13.436;2023-02-15T08:28:31;88.97;;;33.77;;
18983;SDS011;9626;52.552;13.436;2023-02-15T08:31:07;103.50;;;34.80;;
18983;SDS011;9626;52.552;13.436;2023-02-15T08:33:35;105.73;;;31.50;;
18983;SDS011;9626;52.552;13.436;2023-02-15T08:36:03;82.30;;;32.53;;
18983;SDS011;9626;52.552;13.436;2023-02-15T08:38:33;83.47;;;39.87;;
18983;SDS011;9626;52.552;13.436;2023-02-15T08:43:50;71.57;;;33.77;;
18983;SDS011;9626;52.552;13.436;2023-02-15T08:46:22;77.13;;;34.63;;
18983;SDS011;9626;52.552;13.436;2023-02-15T08:48:50;97.50;;;35.40;;
18983;SDS011;9626;52.552;13.436;2023-02-15T08:51:17;77.83;;;35.47;;
18983;SDS011;9626;52.552;13.436;2023-02-15T08:53:46;81.83;;;35.43;;
18983;SDS011;9626;52.552;13.436;2023-02-15T08:56:17;82.23;;;35.40;;
18983;SDS011;9626;52.552;13.436;2023-02-15T08:58:46;85.13;;;35.63;;
18983;SDS011;9626;52.552;13.436;2023-02-15T09:01:13;69.40;;;33.60;;
18983;SDS011;9626;52.552;13.436;2023-02-15T09:03:46;90.67;;;34.27;;
18983;SDS011;9626;52.552;13.436;2023-02-15T09:06:18;75.13;;;35.63;;
18983;SDS011;9626;52.552;13.436;2023-02-15T09:08:45;78.77;;;34.57;;
18983;SDS011;9626;52.552;13.436;2023-02-15T09:13:39;67.73;;;34.83;;
18983;SDS011;9626;52.552;13.436;2023-02-15T09:16:06;80.53;;;35.03;;
18983;SDS011;9626;52.552;13.436;2023-02-15T09:18:35;70.13;;;34.80;;
18983;SDS011;9626;52.552;13.436;2023-02-15T09:21:07;69.43;;;34.50;;
18983;SDS011;9626;52.552;13.436;2023-02-15T09:23:35;61.37;;;31.93;;
18983;SDS011;9626;52.552;13.436;2023-02-15T09:26:03;66.70;;;32.23;;
18983;SDS011;9626;52.552;13.436;2023-02-15T09:28:33;66.07;;;33.33;;
18983;SDS011;9626;52.552;13.436;2023-02-15T09:33:35;63.80;;;32.43;;
18983;SDS011;9626;52.552;13.436;2023-02-15T09:36:03;66.37;;;33.07;;
18983;SDS011;9626;52.552;13.436;2023-02-15T09:38:29;63.67;;;33.83;;
18983;SDS011;9626;52.552;13.436;2023-02-15T09:43:31;65.07;;;33.20;;
18983;SDS011;9626;52.552;13.436;2023-02-15T09:46:07;64.27;;;33.77;;
18983;SDS011;9626;52.552;13.436;2023-02-15T09:48:56;63.60;;;32.70;;
18983;SDS011;9626;52.552;13.436;2023-02-15T09:51:42;57.10;;;32.40;;
18983;SDS011;9626;52.552;13.436;2023-02-15T09:54:23;55.80;;;32.70;;
18983;SDS011;9626;52.552;13.436;2023-02-15T09:56:55;56.57;;;32.03;;
18983;SDS011;9626;52.552;13.436;2023-02-15T10:14:12;51.47;;;29.53;;
18983;SDS011;9626;52.552;13.436;2023-02-15T10:19:39;54.00;;;30.07;;
18983;SDS011;9626;52.552;13.436;2023-02-15T10:27:31;53.33;;;29.83;;
18983;SDS011;9626;52.552;13.436;2023-02-15T10:30:09;52.93;;;30.93;;
18983;SDS011;9626;52.552;13.436;2023-02-15T10:32:40;54.20;;;31.03;;
18983;SDS011;9626;52.552;13.436;2023-02-15T10:35:23;48.43;;;29.57;;
18983;SDS011;9626;52.552;13.436;2023-02-15T10:38:10;43.70;;;27.73;;
18983;SDS011;9626;52.552;13.436;2023-02-15T10:40:56;43.63;;;27.80;;
18983;SDS011;9626;52.552;13.436;2023-02-15T10:46:35;62.40;;;29.57;;
18983;SDS011;9626;52.552;13.436;2023-02-15T10:54:30;42.37;;;27.77;;
18983;SDS011;9626;52.552;13.436;2023-02-15T11:07:46;40.67;;;26.40;;
18983;SDS011;9626;52.552;13.436;2023-02-15T11:12:53;35.37;;;25.73;;
18983;SDS011;9626;52.552;13.436;2023-02-15T11:15:36;39.20;;;25.80;;
18983;SDS011;9626;52.552;13.436;2023-02-15T11:18:14;40.43;;;26.73;;
18983;SDS011;9626;52.552;13.436;2023-02-15T11:23:33;37.97;;;26.33;;
18983;SDS011;9626;52.552;13.436;2023-02-15T11:26:06;39.17;;;26.13;;
18983;SDS011;9626;52.552;13.436;2023-02-15T11:29:01;34.50;;;24.13;;
18983;SDS011;9626;52.552;13.436;2023-02-15T11:31:41;36.47;;;24.90;;
18983;SDS011;9626;52.552;13.436;2023-02-15T11:34:34;40.33;;;26.80;;
18983;SDS011;9626;52.552;13.436;2023-02-15T11:37:08;38.63;;;25.53;;
18983;SDS011;9626;52.552;13.436;2023-02-15T11:39:37;34.87;;;24.93;;
18983;SDS011;9626;52.552;13.436;2023-02-15T11:42:09;33.67;;;23.93;;
18983;SDS011;9626;52.552;13.436;2023-02-15T11:44:45;34.27;;;23.30;;
18983;SDS011;9626;52.552;13.436;2023-02-15T11:47:13;32.67;;;23.67;;
18983;SDS011;9626;52.552;13.436;2023-02-15T11:49:39;33.37;;;23.70;;
18983;SDS011;9626;52.552;13.436;2023-02-15T11:52:06;32.83;;;23.10;;
18983;SDS011;9626;52.552;13.436;2023-02-15T11:54:36;33.33;;;22.17;;
18983;SDS011;9626;52.552;13.436;2023-02-15T12:00:02;33.43;;;22.73;;
18983;SDS011;9626;52.552;13.436;2023-02-15T12:02:29;33.97;;;22.47;;
18983;SDS011;9626;52.552;13.436;2023-02-15T12:05:00;33.17;;;22.33;;
18983;SDS011;9626;52.552;13.436;2023-02-15T12:07:36;54.50;;;24.30;;
18983;SDS011;9626;52.552;13.436;2023-02-15T12:12:39;39.13;;;22.17;;
18983;SDS011;9626;52.552;13.436;2023-02-15T12:15:06;30.53;;;22.23;;
18983;SDS011;9626;52.552;13.436;2023-02-15T12:22:45;30.80;;;20.97;;
18983;SDS011;9626;52.552;13.436;2023-02-15T12:28:03;27.87;;;20.23;;
18983;SDS011;9626;52.552;13.436;2023-02-15T12:30:41;29.80;;;21.97;;
18983;SDS011;9626;52.552;13.436;2023-02-15T12:33:15;28.70;;;20.27;;
18983;SDS011;9626;52.552;13.436;2023-02-15T12:36:00;36.17;;;22.53;;
18983;SDS011;9626;52.552;13.436;2023-02-15T12:38:35;33.23;;;21.73;;
18983;SDS011;9626;52.552;13.436;2023-02-15T12:41:02;30.77;;;22.07;;
18983;SDS011;9626;52.552;13.436;2023-02-15T12:43:48;31.37;;;21.07;;
18983;SDS011;9626;52.552;13.436;2023-02-15T12:50:07;28.77;;;20.90;;
18983;SDS011;9626;52.552;13.436;2023-02-15T12:53:18;31.20;;;21.67;;
18983;SDS011;9626;52.552;13.436;2023-02-15T12:56:08;28.47;;;20.17;;
18983;SDS011;9626;52.552;13.436;2023-02-15T12:59:03;27.83;;;20.50;;
18983;SDS011;9626;52.552;13.436;2023-02-15T13:01:31;29.47;;;21.43;;
18983;SDS011;9626;52.552;13.436;2023-02-15T13:03:59;30.13;;;21.50;;
18983;SDS011;9626;52.552;13.436;2023-02-15T13:06:27;27.53;;;19.83;;
18983;SDS011;9626;52.552;13.436;2023-02-15T13:09:05;28.23;;;20.37;;
18983;SDS011;9626;52.552;13.436;2023-02-15T13:11:39;27.10;;;20.53;;
18983;SDS011;9626;52.552;13.436;2023-02-15T13:14:25;29.67;;;19.93;;
18983;SDS011;9626;52.552;13.436;2023-02-15T13:16:57;25.43;;;19.33;;
18983;SDS011;9626;52.552;13.436;2023-02-15T13:19:31;29.73;;;20.57;;
18983;SDS011;9626;52.552;13.436;2023-02-15T13:22:05;29.60;;;20.03;;
18983;SDS011;9626;52.552;13.436;2023-02-15T13:24:37;26.87;;;20.30;;
18983;SDS011;9626;52.552;13.436;2023-02-15T13:27:20;27.27;;;19.10;;
18983;SDS011;9626;52.552;13.436;2023-02-15T13:29:51;29.67;;;20.70;;
18983;SDS011;9626;52.552;13.436;2023-02-15T13:34:54;27.97;;;20.93;;
18983;SDS011;9626;52.552;13.436;2023-02-15T13:42:49;28.30;;;21.00;;
18983;SDS011;9626;52.552;13.436;2023-02-15T13:48:20;31.13;;;20.50;;
18983;SDS011;9626;52.552;13.436;2023-02-15T13:51:09;26.57;;;20.57;;
18983;SDS011;9626;52.552;13.436;2023-02-15T13:53:53;27.20;;;20.37;;
18983;SDS011;9626;52.552;13.436;2023-02-15T14:07:49;29.27;;;21.30;;
18983;SDS011;9626;52.552;13.436;2023-02-15T14:18:45;28.50;;;21.13;;
18983;SDS011;9626;52.552;13.436;2023-02-15T14:21:20;32.80;;;22.27;;
18983;SDS011;9626;52.552;13.436;2023-02-15T14:26:53;26.97;;;20.03;;
18983;SDS011;9626;52.552;13.436;2023-02-15T14:29:34;31.13;;;21.13;;
18983;SDS011;9626;52.552;13.436;2023-02-15T14:32:07;28.43;;;20.70;;
18983;SDS011;9626;52.552;13.436;2023-02-15T14:34:48;30.97;;;21.37;;
18983;SDS011;9626;52.552;13.436;2023-02-15T14:37:19;31.63;;;19.70;;
18983;SDS011;9626;52.552;13.436;2023-02-15T14:40:30;29.73;;;19.13;;
18983;SDS011;9626;52.552;13.436;2023-02-15T14:49:32;26.77;;;19.00;;
18983;SDS011;9626;52.552;13.436;2023-02-15T14:52:07;25.73;;;18.50;;
18983;SDS011;9626;52.552;13.436;2023-02-15T15:02:39;29.50;;;18.53;;
18983;SDS011;9626;52.552;13.436;2023-02-15T15:11:46;26.60;;;18.97;;
18983;SDS011;9626;52.552;13.436;2023-02-15T15:14:10;28.87;;;19.70;;
18983;SDS011;9626;52.552;13.436;2023-02-15T15:16:57;29.43;;;19.77;;
18983;SDS011;9626;52.552;13.436;2023-02-15T15:22:21;25.23;;;19.10;;
18983;SDS011;9626;52.552;13.436;2023-02-15T15:35:36;26.37;;;19.23;;
18983;SDS011;9626;52.552;13.436;2023-02-15T15:47:03;28.00;;;19.33;;
18983;SDS011;9626;52.552;13.436;2023-02-15T15:49:50;25.47;;;18.77;;
18983;SDS011;9626;52.552;13.436;2023-02-15T15:52:21;28.20;;;19.27;;
18983;SDS011;9626;52.552;13.436;2023-02-15T15:54:50;25.83;;;17.73;;
18983;SDS011;9626;52.552;13.436;2023-02-15T15:59:51;32.07;;;19.93;;
18983;SDS011;9626;52.552;13.436;2023-02-15T16:02:20;30.77;;;20.57;;
18983;SDS011;9626;52.552;13.436;2023-02-15T16:04:46;30.63;;;20.47;;
18983;SDS011;9626;52.552;13.436;2023-02-15T16:16:13;28.33;;;18.10;;
18983;SDS011;9626;52.552;13.436;2023-02-15T16:18:45;28.53;;;18.47;;
18983;SDS011;9626;52.552;13.436;2023-02-15T16:21:19;29.43;;;19.43;;
18983;SDS011;9626;52.552;13.436;2023-02-15T16:29:23;30.47;;;18.20;;
18983;SDS011;9626;52.552;13.436;2023-02-15T16:32:03;36.00;;;21.13;;
18983;SDS011;9626;52.552;13.436;2023-02-15T16:34:32;37.43;;;20.67;;
18983;SDS011;9626;52.552;13.436;2023-02-15T16:37:14;42.50;;;22.43;;
18983;SDS011;9626;52.552;13.436;2023-02-15T16:39:45;34.80;;;21.07;;
18983;SDS011;9626;52.552;13.436;2023-02-15T16:42:13;33.60;;;19.33;;
18983;SDS011;9626;52.552;13.436;2023-02-15T16:44:41;31.07;;;19.27;;
18983;SDS011;9626;52.552;13.436;2023-02-15T16:47:33;36.77;;;21.27;;
18983;SDS011;9626;52.552;13.436;2023-02-15T16:50:02;32.13;;;19.83;;
18983;SDS011;9626;52.552;13.436;2023-02-15T16:52:30;37.47;;;19.83;;
18983;SDS011;9626;52.552;13.436;2023-02-15T16:54:58;30.90;;;20.53;;
18983;SDS011;9626;52.552;13.436;2023-02-15T16:57:31;31.33;;;20.17;;
18983;SDS011;9626;52.552;13.436;2023-02-15T17:00:04;34.87;;;20.07;;
18983;SDS011;9626;52.552;13.436;2023-02-15T17:02:33;41.20;;;22.30;;
18983;SDS011;9626;52.552;13.436;2023-02-15T17:07:39;41.23;;;21.87;;
18983;SDS011;9626;52.552;13.436;2023-02-15T17:10:33;34.30;;;21.27;;
18983;SDS011;9626;52.552;13.436;2023-02-15T17:13:14;34.43;;;21.40;;
18983;SDS011;9626;52.552;13.436;2023-02-15T17:15:42;37.13;;;20.60;;
18983;SDS011;9626;52.552;13.436;2023-02-15T17:18:43;41.67;;;23.30;;
18983;SDS011;9626;52.552;13.436;2023-02-15T17:21:12;38.60;;;23.00;;
18983;SDS011;9626;52.552;13.436;2023-02-15T17:23:44;33.47;;;22.80;;
18983;SDS011;9626;52.552;13.436;2023-02-15T17:26:18;39.60;;;25.47;;
18983;SDS011;9626;52.552;13.436;2023-02-15T17:29:38;42.80;;;23.87;;
18983;SDS011;9626;52.552;13.436;2023-02-15T17:31:57;40.67;;;25.53;;
18983;SDS011;9626;52.552;13.436;2023-02-15T17:34:41;60.13;;;32.87;;
18983;SDS011;9626;52.552;13.436;2023-02-15T17:37:14;53.53;;;27.63;;
18983;SDS011;9626;52.552;13.436;2023-02-15T17:39:48;44.73;;;27.50;;
18983;SDS011;9626;52.552;13.436;2023-02-15T17:42:14;43.00;;;25.90;;
18983;SDS011;9626;52.552;13.436;2023-02-15T17:44:40;45.10;;;27.57;;
18983;SDS011;9626;52.552;13.436;2023-02-15T17:47:13;48.63;;;26.33;;
18983;SDS011;9626;52.552;13.436;2023-02-15T17:49:45;43.63;;;25.87;;
18983;SDS011;9626;52.552;13.436;2023-02-15T17:52:14;43.67;;;26.50;;
18983;SDS011;9626;52.552;13.436;2023-02-15T17:54:43;45.13;;;27.47;;
18983;SDS011;9626;52.552;13.436;2023-02-15T17:57:29;45.03;;;25.93;;
18983;SDS011;9626;52.552;13.436;2023-02-15T17:59:55;42.87;;;25.90;;
18983;SDS011;9626;52.552;13.436;2023-02-15T18:02:40;46.67;;;26.17;;
18983;SDS011;9626;52.552;13.436;2023-02-15T18:05:26;46.17;;;27.47;;
18983;SDS011;9626;52.552;13.436;2023-02-15T18:08:12;49.93;;;29.57;;
18983;SDS011;9626;52.552;13.436;2023-02-15T18:10:58;53.07;;;28.83;;
18983;SDS011;9626;52.552;13.436;2023-02-15T18:13:44;61.17;;;30.03;;
18983;SDS011;9626;52.552;13.436;2023-02-15T18:16:12;53.17;;;28.13;;